Thursday, February 22, 2018, 10:52 AM GMT
Back to Local

CYFC, Fredericton, N. B.

Location: , , Canada Lat: 45.867
Local Time: 10:52 AM GMT (10:52 GMT) Lon: -66.533
Time Zone: GMT Elev: 55 ft

Show me the last for .
Show Decoded

2018-02-22 10:00 METAR CYFC 221000Z AUTO 29009G15KT 270V330 9SM CLR M05/M13 A3054 RMK SLP343 =
2018-02-22 09:00 METAR CYFC 220900Z AUTO 32009G18KT 9SM CLR M04/M13 A3050 RMK SLP332 =
2018-02-22 08:00 METAR CYFC 220800Z AUTO 31014G21KT 9SM CLR M02/M11 A3047 RMK SLP320 =
2018-02-22 07:00 METAR CYFC 220700Z AUTO 31013G22KT 9SM CLR M01/M11 A3042 RMK SLP305 =
2018-02-22 06:00 METAR CYFC 220600Z AUTO 31014G19KT 9SM CLR M00/M11 A3038 RMK PRESRR SLP290 =
2018-02-22 05:00 METAR CYFC 220500Z AUTO 31014G23KT 270V340 9SM CLR 02/M10 A3032 RMK SLP270 =
2018-02-22 04:47 METAR CYFC 220447Z AUTO 31012G22KT 260V330 9SM CLR 02/M07 A3032 RMK PRESRR
                 SLP271 =
2018-02-22 04:00 METAR CYFC 220400Z AUTO 33013KT 9SM FEW039 04/M02 A3027 RMK SLP252 =

Support USWX by starting your Amazon purchase here.